Time;durP1;ratioP1;P1;durP2;ratioP2;P2;SDS_P1;SDS_P2;PMS_P1;PMS_P2;Temp;Humidity;BMP_temperature;BMP_pressure;BME280_temperature;BME280_humidity;BME280_pressure;Samples;Min_cycle;Max_cycle;Signal;HPM_P1;HPM_P2
2021/07/16 00:00:38;;;;;;;10.30;5.63;;;20.90;99.90;;;;;;4188024;28;20082;-61
2021/07/16 00:02:41;;;;;;;7.95;6.20;;;20.80;99.90;;;;;;4190279;28;20044;-61
2021/07/16 00:04:42;;;;;;;10.88;5.93;;;20.80;99.90;;;;;;4188935;28;20028;-61
2021/07/16 00:06:44;;;;;;;12.48;6.10;;;20.80;99.90;;;;;;4190283;28;20554;-61
2021/07/16 00:08:45;;;;;;;9.85;5.93;;;20.80;99.90;;;;;;4188429;28;20086;-62
2021/07/16 00:10:47;;;;;;;13.30;6.15;;;20.80;99.90;;;;;;4190520;28;20481;-61
2021/07/16 00:12:48;;;;;;;9.98;5.28;;;20.80;99.90;;;;;;4189412;28;20481;-61
2021/07/16 00:14:50;;;;;;;11.30;5.78;;;20.80;99.90;;;;;;4189829;28;20036;-62
2021/07/16 00:16:51;;;;;;;7.70;6.22;;;20.80;99.90;;;;;;4189294;28;20024;-61
2021/07/16 00:18:53;;;;;;;12.25;6.32;;;20.80;99.90;;;;;;4189735;28;20439;-62
2021/07/16 00:20:54;;;;;;;7.78;5.30;;;20.80;99.90;;;;;;4189079;28;20078;-60
2021/07/16 00:22:55;;;;;;;6.30;5.15;;;20.80;99.90;;;;;;4188811;28;20028;-62
2021/07/16 00:24:56;;;;;;;7.00;5.57;;;20.80;99.90;;;;;;4189697;28;20041;-62
2021/07/16 00:26:57;;;;;;;7.68;5.22;;;20.80;99.90;;;;;;4189302;28;20441;-62
2021/07/16 00:28:58;;;;;;;11.85;6.30;;;20.80;99.90;;;;;;4189595;28;20522;-61
2021/07/16 00:30:59;;;;;;;10.85;5.82;;;20.80;99.90;;;;;;4188829;28;20086;-62
2021/07/16 00:33:01;;;;;;;8.80;5.15;;;20.80;99.90;;;;;;4189931;28;20071;-61
2021/07/16 00:35:05;;;;;;;9.27;5.22;;;20.80;99.90;;;;;;4188984;28;20028;-62
2021/07/16 00:37:06;;;;;;;7.22;5.07;;;20.80;99.90;;;;;;4189885;28;20078;-62
2021/07/16 00:39:07;;;;;;;11.70;5.50;;;20.80;99.90;;;;;;4188501;28;20090;-61
2021/07/16 00:41:08;;;;;;;6.85;4.72;;;20.90;99.90;;;;;;4190046;28;20082;-61
2021/07/16 00:43:09;;;;;;;16.00;5.05;;;20.90;99.90;;;;;;4188143;28;20070;-61
2021/07/16 00:45:13;;;;;;;6.78;5.18;;;20.90;99.90;;;;;;4189762;28;20036;-62
2021/07/16 00:47:14;;;;;;;9.48;5.47;;;20.90;99.90;;;;;;4188596;28;20029;-62
2021/07/16 00:49:15;;;;;;;6.25;5.13;;;20.90;99.90;;;;;;4189194;28;20044;-61
2021/07/16 00:51:16;;;;;;;8.80;5.28;;;20.90;99.90;;;;;;4188860;28;20032;-61
2021/07/16 00:53:19;;;;;;;12.70;5.60;;;20.90;99.90;;;;;;4189353;28;20029;-62
2021/07/16 00:55:20;;;;;;;9.48;6.18;;;20.90;99.90;;;;;;4189032;28;20546;-62
2021/07/16 00:57:22;;;;;;;9.10;6.38;;;20.80;99.90;;;;;;4188785;28;20090;-62
2021/07/16 00:59:25;;;;;;;9.95;5.78;;;20.80;99.90;;;;;;4189687;28;20157;-62
2021/07/16 01:01:26;;;;;;;8.43;5.53;;;20.80;99.90;;;;;;4188325;28;20033;-62
2021/07/16 01:03:27;;;;;;;8.00;5.03;;;20.80;99.90;;;;;;4189642;28;20428;-62
2021/07/16 01:05:30;;;;;;;9.18;6.00;;;20.80;99.90;;;;;;4188895;28;20048;-62
2021/07/16 01:07:31;;;;;;;9.93;5.97;;;20.80;99.90;;;;;;4189646;28;20089;-61
2021/07/16 01:09:32;;;;;;;9.05;6.65;;;20.90;99.90;;;;;;4188486;28;20408;-62
2021/07/16 01:11:34;;;;;;;9.18;6.57;;;20.90;99.90;;;;;;4189681;28;20040;-61
2021/07/16 01:13:36;;;;;;;12.60;6.40;;;20.90;99.90;;;;;;4188303;28;20481;-62
2021/07/16 01:15:37;;;;;;;8.43;6.18;;;20.90;99.90;;;;;;4189998;28;20041;-63
2021/07/16 01:17:38;;;;;;;12.05;6.95;;;21.00;99.90;;;;;;4188043;28;20032;-61
2021/07/16 01:19:57;;;;;;;11.80;5.95;;;21.00;99.90;;;;;;4188899;28;20445;-62
2021/07/16 01:22:01;;;;;;;10.10;6.13;;;21.00;99.90;;;;;;4188148;28;20423;-60
2021/07/16 01:24:03;;;;;;;11.10;7.10;;;21.00;99.90;;;;;;4189444;28;20024;-63
2021/07/16 01:26:06;;;;;;;13.35;6.68;;;20.90;99.90;;;;;;4188974;28;20033;-62
2021/07/16 01:28:07;;;;;;;14.60;7.10;;;20.90;99.90;;;;;;4189250;28;20033;-62
2021/07/16 01:30:11;;;;;;;13.93;6.55;;;20.90;99.90;;;;;;4188803;28;20094;-62
2021/07/16 01:32:12;;;;;;;7.65;5.60;;;20.90;99.90;;;;;;4188863;28;20469;-64
2021/07/16 01:34:13;;;;;;;8.70;6.18;;;20.90;99.90;;;;;;4188777;28;20079;-62
2021/07/16 01:36:14;;;;;;;9.27;6.57;;;20.90;99.90;;;;;;4188411;28;20086;-62
2021/07/16 01:38:16;;;;;;;12.43;8.25;;;20.90;99.90;;;;;;4188674;28;20446;-61
2021/07/16 01:40:19;;;;;;;13.18;8.50;;;20.90;99.90;;;;;;4188230;28;20032;-61
2021/07/16 01:42:21;;;;;;;14.60;9.63;;;20.80;99.90;;;;;;4189212;28;20029;-62
2021/07/16 01:44:22;;;;;;;13.10;7.95;;;20.80;99.90;;;;;;4188156;28;20445;-62
2021/07/16 01:46:23;;;;;;;9.38;6.22;;;20.80;99.90;;;;;;4189582;28;20044;-62
2021/07/16 01:48:24;;;;;;;15.82;6.88;;;20.80;99.90;;;;;;4188237;28;20024;-62
2021/07/16 01:50:28;;;;;;;9.43;6.80;;;20.80;99.90;;;;;;4189487;28;20427;-62
2021/07/16 01:52:29;;;;;;;8.88;6.95;;;20.80;99.90;;;;;;4187970;28;20032;-62
2021/07/16 01:54:30;;;;;;;13.48;6.75;;;20.80;99.90;;;;;;4189227;28;20036;-62
2021/07/16 01:56:31;;;;;;;14.25;6.68;;;20.80;99.90;;;;;;4191445;28;20477;-62
2021/07/16 01:58:33;;;;;;;8.15;6.70;;;20.80;99.90;;;;;;4191993;28;20074;-61
2021/07/16 02:00:37;;;;;;;11.55;6.50;;;20.80;99.90;;;;;;4191475;28;20044;-61
2021/07/16 02:03:05;;;;;;;9.48;6.57;;;20.80;99.90;;;;;;4192052;28;20028;-62
2021/07/16 02:05:07;;;;;;;9.40;6.70;;;20.80;99.90;;;;;;4190346;28;20450;-62
2021/07/16 02:07:09;;;;;;;9.65;5.97;;;20.80;99.90;;;;;;4191882;28;20032;-62
2021/07/16 02:09:10;;;;;;;10.18;6.00;;;20.70;99.90;;;;;;4191217;28;20028;-62
2021/07/16 02:11:11;;;;;;;11.55;6.25;;;20.60;99.90;;;;;;4191507;28;20459;-62
2021/07/16 02:13:13;;;;;;;16.52;7.22;;;20.60;99.90;;;;;;4191797;28;21033;-62
2021/07/16 02:15:17;;;;;;;10.32;6.70;;;20.50;99.90;;;;;;4191409;28;20074;-62
2021/07/16 02:17:18;;;;;;;12.40;6.82;;;20.50;99.90;;;;;;4192072;28;20082;-61
2021/07/16 02:19:23;;;;;;;11.65;6.38;;;20.50;99.90;;;;;;4191123;28;20086;-61
2021/07/16 02:21:24;;;;;;;9.90;6.20;;;20.50;99.90;;;;;;4191572;28;20036;-62
2021/07/16 02:23:27;;;;;;;10.10;6.65;;;20.50;99.90;;;;;;4190799;28;20086;-62
2021/07/16 02:25:29;;;;;;;10.60;7.05;;;20.40;99.90;;;;;;4191935;28;20162;-62
2021/07/16 02:27:32;;;;;;;9.43;7.38;;;20.40;99.90;;;;;;4191203;28;20036;-61
2021/07/16 02:29:34;;;;;;;10.32;7.60;;;20.50;99.90;;;;;;4191568;28;20028;-62
2021/07/16 02:31:35;;;;;;;11.73;7.25;;;20.50;99.90;;;;;;4190819;28;20021;-61
2021/07/16 02:33:37;;;;;;;10.75;7.07;;;20.60;99.90;;;;;;4191826;28;20539;-62
2021/07/16 02:35:40;;;;;;;15.10;7.47;;;20.60;99.90;;;;;;4190587;28;20060;-61
2021/07/16 02:37:42;;;;;;;11.90;7.00;;;20.70;99.90;;;;;;4191132;28;20025;-61
2021/07/16 02:39:43;;;;;;;9.88;7.35;;;20.70;99.90;;;;;;4189444;28;20852;-62
2021/07/16 02:41:44;;;;;;;13.60;9.93;;;20.70;99.90;;;;;;4191920;28;20044;-62
2021/07/16 02:43:45;;;;;;;11.52;6.97;;;20.70;99.90;;;;;;4190469;28;20109;-62
2021/07/16 02:45:47;;;;;;;12.30;6.60;;;20.60;99.90;;;;;;4191234;28;20029;-62
2021/07/16 02:47:52;;;;;;;9.80;6.20;;;20.60;99.90;;;;;;4190945;28;20036;-61
2021/07/16 02:49:53;;;;;;;10.25;6.10;;;20.50;99.90;;;;;;4190641;28;20028;-62
2021/07/16 02:51:54;;;;;;;12.18;6.82;;;20.50;99.90;;;;;;4191238;28;20032;-62
2021/07/16 02:53:55;;;;;;;11.75;6.20;;;20.40;99.90;;;;;;4190771;28;20032;-62
2021/07/16 02:55:56;;;;;;;12.27;6.30;;;20.40;99.90;;;;;;4191512;28;20037;-61
2021/07/16 02:57:57;;;;;;;9.60;5.63;;;20.40;99.90;;;;;;4190463;28;20089;-62
2021/07/16 02:59:58;;;;;;;10.55;5.18;;;20.50;99.90;;;;;;4191586;28;20028;-62
2021/07/16 03:02:00;;;;;;;8.60;6.82;;;20.50;99.90;;;;;;4190263;28;20354;-63
2021/07/16 03:04:01;;;;;;;8.57;5.50;;;20.50;99.90;;;;;;4191265;28;20090;-61
2021/07/16 03:06:02;;;;;;;7.00;4.93;;;20.50;99.90;;;;;;4189961;28;20090;-62
2021/07/16 03:08:09;;;;;;;8.73;4.80;;;20.50;99.90;;;;;;4191584;28;20039;-62
2021/07/16 03:10:22;;;;;;;6.13;3.75;;;20.70;99.90;;;;;;4190225;28;20037;-61
2021/07/16 03:12:23;;;;;;;5.00;3.97;;;20.70;99.90;;;;;;4190925;28;20040;-60
2021/07/16 03:14:24;;;;;;;5.78;3.92;;;20.60;99.90;;;;;;4189914;28;20097;-61
2021/07/16 03:16:25;;;;;;;6.00;3.50;;;20.60;99.90;;;;;;4191138;28;20070;-61
2021/07/16 03:18:26;;;;;;;6.45;3.60;;;20.60;99.90;;;;;;4190007;28;20040;-60
2021/07/16 03:20:37;;;;;;;7.80;3.85;;;20.50;99.90;;;;;;4190423;28;20481;-61
2021/07/16 03:22:38;;;;;;;4.60;3.30;;;20.50;99.90;;;;;;4189332;28;20118;-60
2021/07/16 03:24:39;;;;;;;10.25;4.05;;;20.40;99.90;;;;;;4190092;28;20024;-60
2021/07/16 03:26:41;;;;;;;5.57;3.40;;;20.40;99.90;;;;;;4190522;28;20888;-61
2021/07/16 03:28:43;;;;;;;6.35;3.80;;;20.50;99.90;;;;;;4189953;28;20032;-61
2021/07/16 03:30:44;;;;;;;5.63;3.50;;;20.50;99.90;;;;;;4190449;28;20077;-60
2021/07/16 03:32:45;;;;;;;4.60;3.63;;;20.50;99.90;;;;;;4189345;28;20024;-62
2021/07/16 03:34:46;;;;;;;5.20;3.60;;;20.50;99.90;;;;;;4190536;28;20024;-61
2021/07/16 03:36:47;;;;;;;4.15;3.40;;;20.50;99.90;;;;;;4189501;28;20074;-62
2021/07/16 03:38:51;;;;;;;3.75;3.30;;;20.50;99.90;;;;;;4190666;28;20110;-61
2021/07/16 03:40:55;;;;;;;6.55;3.58;;;20.50;99.90;;;;;;4189170;28;20036;-61
2021/07/16 03:42:58;;;;;;;6.53;3.67;;;20.50;99.90;;;;;;4190483;28;20132;-61
2021/07/16 03:44:59;;;;;;;3.90;3.03;;;20.50;99.90;;;;;;4189587;28;20514;-61
2021/07/16 03:47:00;;;;;;;4.72;3.22;;;20.50;99.90;;;;;;4190320;28;20093;-61
2021/07/16 03:49:01;;;;;;;6.28;3.30;;;20.40;99.90;;;;;;4189305;28;20028;-61
2021/07/16 03:51:02;;;;;;;7.45;3.92;;;20.40;99.90;;;;;;4189760;28;20423;-62
2021/07/16 03:53:05;;;;;;;6.03;3.85;;;20.40;99.90;;;;;;4189778;28;20036;-61
2021/07/16 03:55:09;;;;;;;6.15;3.72;;;20.40;99.90;;;;;;4190535;28;20048;-61
2021/07/16 03:57:10;;;;;;;5.80;3.60;;;20.30;99.90;;;;;;4190020;28;20423;-61
2021/07/16 03:59:11;;;;;;;8.80;4.38;;;20.30;99.90;;;;;;4189594;28;20056;-61
2021/07/16 04:01:15;;;;;;;4.50;3.92;;;20.30;99.90;;;;;;4189423;28;20378;-61
2021/07/16 04:03:17;;;;;;;7.43;3.80;;;20.30;99.90;;;;;;4189255;28;20431;-61
2021/07/16 04:05:18;;;;;;;6.90;3.92;;;20.30;99.90;;;;;;4189865;28;20041;-61
2021/07/16 04:07:25;;;;;;;4.88;3.53;;;20.30;99.90;;;;;;4189130;28;20054;-60
2021/07/16 04:09:28;;;;;;;5.30;3.70;;;20.40;99.90;;;;;;4190219;28;20032;-61
2021/07/16 04:11:29;;;;;;;5.40;3.80;;;20.50;99.90;;;;;;4189115;28;20045;-63
2021/07/16 04:13:30;;;;;;;5.32;4.00;;;20.50;99.90;;;;;;4190104;28;20041;-61
2021/07/16 04:15:31;;;;;;;8.02;3.72;;;20.60;99.90;;;;;;4188554;28;20098;-61
2021/07/16 04:17:32;;;;;;;7.32;4.15;;;20.50;99.90;;;;;;4189762;28;20090;-61
2021/07/16 04:19:34;;;;;;;8.00;3.75;;;20.50;99.90;;;;;;4188835;28;20052;-62
2021/07/16 04:21:35;;;;;;;7.05;3.78;;;20.50;99.90;;;;;;4189551;28;20044;-61
2021/07/16 04:23:36;;;;;;;6.82;4.40;;;20.40;99.90;;;;;;4188539;28;20036;-62
2021/07/16 04:25:37;;;;;;;6.50;3.80;;;20.40;99.90;;;;;;4190248;28;20044;-62
2021/07/16 04:27:38;;;;;;;9.02;4.63;;;20.50;99.90;;;;;;4189949;28;20066;-62
2021/07/16 04:29:40;;;;;;;5.78;4.40;;;20.50;99.90;;;;;;4189918;28;20037;-62
2021/07/16 04:31:42;;;;;;;5.55;4.05;;;20.60;99.90;;;;;;4189100;28;20033;-62
2021/07/16 04:33:43;;;;;;;5.78;4.00;;;20.80;99.90;;;;;;4188890;28;20420;-62
2021/07/16 04:35:44;;;;;;;5.65;4.88;;;20.80;99.90;;;;;;4189372;28;20087;-62
2021/07/16 04:37:46;;;;;;;6.35;3.67;;;20.80;99.90;;;;;;4187848;28;20102;-62
2021/07/16 04:39:47;;;;;;;5.95;4.10;;;20.80;99.90;;;;;;4189042;28;20045;-62
2021/07/16 04:41:48;;;;;;;5.55;4.13;;;20.80;99.90;;;;;;4187260;28;20117;-62
2021/07/16 04:43:49;;;;;;;8.45;4.15;;;20.80;99.90;;;;;;4189389;28;20070;-62
2021/07/16 04:45:50;;;;;;;6.85;3.97;;;20.80;99.90;;;;;;4188177;28;20032;-62
2021/07/16 04:47:52;;;;;;;4.68;4.07;;;20.80;99.90;;;;;;4188543;28;20036;-62
2021/07/16 04:49:53;;;;;;;5.30;3.78;;;20.90;99.90;;;;;;4187995;28;20032;-61
2021/07/16 04:51:54;;;;;;;10.05;4.60;;;21.00;99.90;;;;;;4189291;28;20036;-62
2021/07/16 04:53:57;;;;;;;7.90;4.47;;;21.00;99.90;;;;;;4188247;28;20028;-61
2021/07/16 04:55:58;;;;;;;9.45;4.80;;;21.00;99.90;;;;;;4189152;28;20477;-61
2021/07/16 04:57:59;;;;;;;9.00;5.45;;;21.10;99.90;;;;;;4188513;28;20049;-61
2021/07/16 05:00:01;;;;;;;9.43;4.88;;;21.00;99.90;;;;;;4189184;28;20070;-63
2021/07/16 05:02:03;;;;;;;6.90;4.45;;;20.90;99.90;;;;;;4188167;28;20032;-62
2021/07/16 05:04:04;;;;;;;6.97;4.95;;;20.90;99.90;;;;;;4188548;28;20075;-62
2021/07/16 05:06:06;;;;;;;7.78;5.70;;;20.80;99.90;;;;;;4188528;28;20032;-61
2021/07/16 05:08:07;;;;;;;8.90;4.50;;;20.80;99.90;;;;;;4187735;28;20447;-62
2021/07/16 05:10:09;;;;;;;5.15;4.60;;;20.80;99.90;;;;;;4189047;28;20040;-62
2021/07/16 05:12:10;;;;;;;7.30;4.22;;;20.80;99.90;;;;;;4187936;28;20025;-62
2021/07/16 05:14:11;;;;;;;8.43;4.38;;;20.80;99.90;;;;;;4188537;28;20619;-61
2021/07/16 05:16:16;;;;;;;6.88;4.32;;;20.90;99.90;;;;;;4187487;28;20062;-62
2021/07/16 05:18:17;;;;;;;7.70;4.65;;;21.00;99.90;;;;;;4189295;28;20501;-62
2021/07/16 05:20:18;;;;;;;5.90;4.50;;;21.00;99.90;;;;;;4187834;28;20495;-62
2021/07/16 05:22:19;;;;;;;10.02;5.22;;;21.00;99.90;;;;;;4189082;28;20568;-62
2021/07/16 05:24:21;;;;;;;6.88;4.93;;;21.00;99.90;;;;;;4188000;28;20083;-62
2021/07/16 05:26:22;;;;;;;5.75;4.70;;;21.10;99.90;;;;;;4189474;28;20032;-62
2021/07/16 05:28:23;;;;;;;7.55;4.88;;;21.10;99.90;;;;;;4188311;28;20094;-62
2021/07/16 05:30:25;;;;;;;7.97;4.85;;;21.20;99.90;;;;;;4189967;28;20101;-62
2021/07/16 05:32:26;;;;;;;6.50;4.78;;;21.20;99.90;;;;;;4191347;28;20093;-61
2021/07/16 05:34:27;;;;;;;6.53;4.63;;;21.20;99.90;;;;;;4191853;28;20032;-62
2021/07/16 05:36:28;;;;;;;6.05;4.82;;;21.30;99.90;;;;;;4191399;28;20086;-62
2021/07/16 05:38:29;;;;;;;6.43;4.85;;;21.30;99.90;;;;;;4191068;28;20102;-61
2021/07/16 05:40:31;;;;;;;5.40;4.20;;;21.40;99.90;;;;;;4191928;28;20090;-61
2021/07/16 05:42:32;;;;;;;10.45;4.65;;;21.30;99.90;;;;;;4191326;28;20089;-62
2021/07/16 05:44:33;;;;;;;7.72;5.70;;;21.40;99.90;;;;;;4192148;28;20799;-62
2021/07/16 05:46:34;;;;;;;5.50;4.70;;;21.50;99.90;;;;;;4190615;28;20013;-61
2021/07/16 05:48:36;;;;;;;6.28;5.00;;;21.60;99.90;;;;;;4192255;28;20474;-62
2021/07/16 05:50:39;;;;;;;5.82;4.65;;;21.70;99.90;;;;;;4191164;28;20086;-61
2021/07/16 05:52:40;;;;;;;9.85;4.97;;;21.80;99.90;;;;;;4192032;28;20040;-62
2021/07/16 05:54:41;;;;;;;9.32;5.10;;;21.90;99.90;;;;;;4190588;28;20048;-62
2021/07/16 05:56:44;;;;;;;6.82;4.25;;;22.00;99.90;;;;;;4191805;28;20040;-63
2021/07/16 05:58:46;;;;;;;6.45;4.38;;;22.20;99.90;;;;;;4191117;28;20029;-62
2021/07/16 06:00:49;;;;;;;8.70;4.07;;;22.40;99.90;;;;;;4191810;28;20099;-62
2021/07/16 06:02:51;;;;;;;7.53;4.28;;;22.70;99.90;;;;;;4190745;28;20036;-62
2021/07/16 06:04:53;;;;;;;6.47;3.72;;;23.00;99.90;;;;;;4192049;28;20070;-62
2021/07/16 06:06:54;;;;;;;6.70;4.07;;;23.40;99.90;;;;;;4191003;28;20066;-62
2021/07/16 06:08:55;;;;;;;7.63;4.93;;;24.00;99.90;;;;;;4191081;28;20094;-61
2021/07/16 06:10:56;;;;;;;5.38;3.45;;;24.60;99.90;;;;;;4191485;28;20024;-62
2021/07/16 06:12:58;;;;;;;11.98;4.40;;;25.10;99.90;;;;;;4190659;28;20078;-62
2021/07/16 06:15:02;;;;;;;9.57;4.20;;;25.60;99.90;;;;;;4191685;28;20028;-62
2021/07/16 06:17:04;;;;;;;7.38;4.40;;;26.10;99.90;;;;;;4190647;28;20029;-62
2021/07/16 06:19:05;;;;;;;7.45;4.03;;;26.30;99.90;;;;;;4192073;28;20118;-62
2021/07/16 06:21:08;;;;;;;6.80;4.45;;;26.60;99.90;;;;;;4190317;28;20028;-62
2021/07/16 06:23:09;;;;;;;6.57;4.25;;;26.70;99.90;;;;;;4191908;28;20047;-63
2021/07/16 06:25:12;;;;;;;7.30;4.88;;;26.80;99.90;;;;;;4190137;28;20094;-62
2021/07/16 06:27:13;;;;;;;7.72;4.68;;;26.80;99.90;;;;;;4192018;28;20082;-62
2021/07/16 06:29:14;;;;;;;8.93;5.07;;;26.80;99.90;;;;;;4190012;28;20020;-62
2021/07/16 06:31:15;;;;;;;5.55;4.13;;;26.70;99.90;;;;;;4191793;28;20884;-62
2021/07/16 06:33:16;;;;;;;6.95;4.30;;;26.50;99.90;;;;;;4190242;28;20032;-62
2021/07/16 06:35:17;;;;;;;6.28;4.78;;;26.50;99.90;;;;;;4191442;28;20439;-63
2021/07/16 06:37:18;;;;;;;9.90;4.70;;;26.60;99.90;;;;;;4190811;28;20407;-62
2021/07/16 06:39:19;;;;;;;12.73;5.43;;;26.60;99.90;;;;;;4190867;28;20366;-63
2021/07/16 06:41:20;;;;;;;11.77;5.80;;;26.60;99.90;;;;;;4190275;28;20102;-62
2021/07/16 06:43:22;;;;;;;8.02;4.38;;;26.80;99.90;;;;;;4190307;28;20032;-63
2021/07/16 06:45:23;;;;;;;10.40;4.65;;;26.90;99.90;;;;;;4191436;28;20024;-63
2021/07/16 06:47:24;;;;;;;9.85;4.57;;;27.10;99.90;;;;;;4190428;28;20024;-63
2021/07/16 06:49:28;;;;;;;6.70;4.10;;;27.20;99.90;;;;;;4191511;28;20393;-62
2021/07/16 06:51:33;;;;;;;9.65;4.78;;;27.30;99.90;;;;;;4189307;28;20103;-62
2021/07/16 06:53:34;;;;;;;10.07;4.25;;;27.30;99.90;;;;;;4190775;28;20052;-63
2021/07/16 06:55:35;;;;;;;5.25;4.22;;;27.20;99.90;;;;;;4190251;28;20036;-63
2021/07/16 06:57:39;;;;;;;5.65;4.25;;;27.10;99.90;;;;;;4191795;28;20444;-63
2021/07/16 06:59:42;;;;;;;6.43;4.00;;;27.20;99.90;;;;;;4190064;28;20455;-63
2021/07/16 07:01:44;;;;;;;5.65;3.45;;;27.10;99.90;;;;;;4191050;28;20485;-61
2021/07/16 07:03:45;;;;;;;5.30;3.10;;;27.50;99.90;;;;;;4189256;28;20040;-63
2021/07/16 07:05:46;;;;;;;6.78;3.72;;;27.90;99.90;;;;;;4190583;28;20028;-62
2021/07/16 07:07:47;;;;;;;7.22;4.50;;;28.20;99.90;;;;;;4189294;28;20024;-63
2021/07/16 07:09:48;;;;;;;6.88;4.45;;;27.90;99.90;;;;;;4190662;28;20518;-63
2021/07/16 07:11:49;;;;;;;8.68;4.72;;;27.50;99.90;;;;;;4189911;28;20044;-62
2021/07/16 07:13:51;;;;;;;9.27;4.60;;;27.00;99.90;;;;;;4190367;28;20058;-61
2021/07/16 07:15:52;;;;;;;10.40;4.22;;;26.80;99.90;;;;;;4190329;28;20048;-63
2021/07/16 07:17:55;;;;;;;8.63;4.93;;;26.60;99.90;;;;;;4190022;28;20025;-62
2021/07/16 07:19:56;;;;;;;5.53;3.60;;;26.50;99.90;;;;;;4190431;28;20135;-62
2021/07/16 07:21:58;;;;;;;3.88;3.38;;;26.40;99.90;;;;;;4189423;28;20418;-63
2021/07/16 07:23:59;;;;;;;4.45;4.05;;;26.40;99.90;;;;;;4188856;28;20037;-62
2021/07/16 07:26:00;;;;;;;4.63;3.60;;;26.60;99.90;;;;;;4189206;28;20028;-62
2021/07/16 07:28:01;;;;;;;5.65;3.65;;;26.40;99.90;;;;;;4190961;28;20510;-62
2021/07/16 07:30:03;;;;;;;4.97;3.30;;;26.60;99.90;;;;;;4189309;28;20419;-62
2021/07/16 07:32:05;;;;;;;4.45;3.30;;;26.70;99.90;;;;;;4191282;28;20066;-62
2021/07/16 07:34:06;;;;;;;4.13;2.83;;;26.70;99.90;;;;;;4189348;28;20824;-63
2021/07/16 07:36:08;;;;;;;8.38;4.35;;;26.70;99.90;;;;;;4190230;28;20082;-63
2021/07/16 07:38:09;;;;;;;7.10;3.40;;;26.60;99.90;;;;;;4189210;28;20048;-63
2021/07/16 07:40:13;;;;;;;4.72;3.10;;;26.70;99.90;;;;;;4190374;28;20040;-63
2021/07/16 07:42:17;;;;;;;6.80;3.13;;;26.80;99.90;;;;;;4189062;28;20024;-62
2021/07/16 07:44:18;;;;;;;3.78;2.90;;;26.60;99.90;;;;;;4190308;28;20041;-62
2021/07/16 07:46:20;;;;;;;5.53;3.38;;;26.60;99.90;;;;;;4189680;28;20025;-62
2021/07/16 07:48:21;;;;;;;4.90;3.30;;;26.80;99.90;;;;;;4189462;28;20484;-63
2021/07/16 07:50:22;;;;;;;5.68;3.45;;;26.90;99.60;;;;;;4190107;28;20048;-63
2021/07/16 07:52:23;;;;;;;4.97;4.15;;;26.90;99.70;;;;;;4188501;28;20082;-63
2021/07/16 07:54:24;;;;;;;5.43;3.53;;;26.90;99.80;;;;;;4189420;28;20044;-62
2021/07/16 07:56:26;;;;;;;5.05;3.08;;;26.80;99.60;;;;;;4189150;28;20158;-63
2021/07/16 07:58:27;;;;;;;5.75;3.72;;;26.70;99.50;;;;;;4190338;28;20514;-61
2021/07/16 08:00:28;;;;;;;6.30;3.20;;;26.90;99.30;;;;;;4189157;28;20041;-63
2021/07/16 08:02:29;;;;;;;5.18;3.97;;;27.30;99.20;;;;;;4190086;28;20032;-62
2021/07/16 08:04:30;;;;;;;6.30;3.45;;;27.60;98.80;;;;;;4189050;28;20032;-62
2021/07/16 08:06:31;;;;;;;5.00;3.83;;;28.00;98.30;;;;;;4189812;28;20078;-62
2021/07/16 08:08:33;;;;;;;5.05;3.42;;;27.80;98.20;;;;;;4188632;28;20062;-62
2021/07/16 08:10:34;;;;;;;5.43;3.45;;;27.60;98.30;;;;;;4189662;28;20086;-61
2021/07/16 08:12:35;;;;;;;5.57;4.03;;;27.60;98.50;;;;;;4188527;28;20736;-60
2021/07/16 08:14:37;;;;;;;7.22;3.72;;;27.80;98.60;;;;;;4189436;28;20032;-61
2021/07/16 08:16:42;;;;;;;5.65;3.90;;;28.40;98.60;;;;;;4188715;28;20036;-62
2021/07/16 08:18:43;;;;;;;6.07;3.58;;;28.60;97.90;;;;;;4189176;28;20098;-62
2021/07/16 08:20:44;;;;;;;4.03;3.50;;;28.60;98.20;;;;;;4189156;28;20591;-62
2021/07/16 08:22:45;;;;;;;5.18;3.38;;;28.60;97.80;;;;;;4188461;28;20371;-62
2021/07/16 08:24:48;;;;;;;7.53;4.22;;;28.60;97.80;;;;;;4189741;28;20032;-62
2021/07/16 08:26:49;;;;;;;5.35;3.58;;;28.60;98.00;;;;;;4188474;28;20082;-62
2021/07/16 08:28:51;;;;;;;8.95;3.53;;;28.60;98.20;;;;;;4189578;28;20024;-62
2021/07/16 08:30:52;;;;;;;5.05;3.95;;;28.10;97.90;;;;;;4187719;28;20687;-59
2021/07/16 08:32:53;;;;;;;5.47;4.25;;;27.70;98.30;;;;;;4189870;28;20036;-62
2021/07/16 08:34:54;;;;;;;4.68;3.40;;;27.60;98.60;;;;;;4188064;28;20040;-61
2021/07/16 08:36:57;;;;;;;3.70;3.40;;;27.60;98.60;;;;;;4189520;28;20376;-62
2021/07/16 08:38:58;;;;;;;6.53;3.58;;;27.60;98.60;;;;;;4188305;28;20052;-61
2021/07/16 08:40:59;;;;;;;5.05;3.63;;;27.50;98.60;;;;;;4189064;28;20044;-62
2021/07/16 08:43:02;;;;;;;8.52;3.53;;;27.80;98.70;;;;;;4188189;28;20020;-62
2021/07/16 08:45:08;;;;;;;7.85;4.40;;;28.00;98.30;;;;;;4188978;28;20358;-62
2021/07/16 08:47:10;;;;;;;9.68;4.82;;;27.70;98.70;;;;;;4188348;28;20107;-62
2021/07/16 08:49:14;;;;;;;6.47;4.20;;;27.50;99.10;;;;;;4188949;28;20550;-62
2021/07/16 08:51:20;;;;;;;7.00;4.20;;;27.60;99.10;;;;;;4188353;28;20040;-62
2021/07/16 08:53:23;;;;;;;4.53;3.78;;;27.20;99.30;;;;;;4188450;28;20020;-64
2021/07/16 08:55:24;;;;;;;5.03;3.80;;;27.20;99.50;;;;;;4188624;28;20185;-62
2021/07/16 08:57:27;;;;;;;5.97;3.80;;;27.30;99.60;;;;;;4186622;28;20452;-62
2021/07/16 08:59:28;;;;;;;4.82;3.92;;;27.60;99.50;;;;;;4188793;28;20518;-61
2021/07/16 09:01:29;;;;;;;10.32;4.57;;;27.80;99.30;;;;;;4188133;28;20094;-62
2021/07/16 09:03:31;;;;;;;7.38;4.10;;;27.80;99.10;;;;;;4189169;28;20438;-61
2021/07/16 09:05:39;;;;;;;6.97;4.13;;;27.90;99.00;;;;;;4188085;28;20037;-62
2021/07/16 09:07:49;;;;;;;5.32;4.13;;;27.80;99.10;;;;;;4189299;28;20028;-62
2021/07/16 09:09:50;;;;;;;11.55;4.00;;;27.80;98.90;;;;;;4187353;28;20093;-62
2021/07/16 09:11:54;;;;;;;6.95;3.65;;;27.70;98.90;;;;;;4189138;28;20040;-62
2021/07/16 09:13:55;;;;;;;7.10;4.70;;;27.80;98.90;;;;;;4188018;28;20073;-62
2021/07/16 09:16:01;;;;;;;6.70;4.03;;;27.70;99.00;;;;;;4189670;28;20098;-62
2021/07/16 09:18:23;;;;;;;5.82;4.07;;;27.70;98.90;;;;;;4187566;28;20459;-62
2021/07/16 09:20:26;;;;;;;6.45;3.95;;;27.70;99.00;;;;;;4189073;28;20831;-62
2021/07/16 09:22:28;;;;;;;8.20;3.67;;;27.90;99.10;;;;;;4187386;28;20123;-63
2021/07/16 09:24:29;;;;;;;6.68;4.47;;;28.10;98.80;;;;;;4188756;28;20024;-62
2021/07/16 09:26:30;;;;;;;6.72;4.35;;;28.10;98.80;;;;;;4187984;28;20493;-61
2021/07/16 09:28:31;;;;;;;7.45;4.30;;;28.10;98.40;;;;;;4189393;28;20071;-62
2021/07/16 09:30:33;;;;;;;6.35;4.63;;;27.90;98.40;;;;;;4187689;28;20082;-62
2021/07/16 09:32:38;;;;;;;7.07;4.30;;;27.90;98.40;;;;;;4188419;28;20029;-62
2021/07/16 09:34:39;;;;;;;6.40;4.40;;;28.00;98.30;;;;;;4187869;28;20177;-63
2021/07/16 09:36:43;;;;;;;6.55;4.60;;;28.20;98.30;;;;;;4187662;28;20086;-62
2021/07/16 09:38:53;;;;;;;4.82;4.35;;;28.30;97.80;;;;;;4186670;28;20126;-63
2021/07/16 09:40:55;;;;;;;6.40;4.15;;;28.30;97.70;;;;;;4188006;28;20388;-62
2021/07/16 09:42:58;;;;;;;5.68;4.35;;;28.10;97.90;;;;;;4188259;28;20098;-62
2021/07/16 09:44:59;;;;;;;8.07;4.38;;;27.90;98.10;;;;;;4187423;28;20036;-62
2021/07/16 09:47:18;;;;;;;8.25;4.72;;;27.80;98.10;;;;;;4188713;28;20028;-62
2021/07/16 09:49:22;;;;;;;8.35;4.78;;;27.80;98.10;;;;;;4187403;28;20494;-62
2021/07/16 09:51:27;;;;;;;5.72;4.32;;;28.00;98.10;;;;;;4188461;28;20040;-62
2021/07/16 09:53:29;;;;;;;12.15;5.22;;;28.10;98.00;;;;;;4187523;28;20212;-63
2021/07/16 09:55:31;;;;;;;8.30;4.57;;;28.10;98.10;;;;;;4188138;28;20074;-61
2021/07/16 09:57:49;;;;;;;8.82;3.83;;;28.20;97.90;;;;;;4187689;28;20044;-62
2021/07/16 09:59:50;;;;;;;8.40;4.15;;;28.20;97.30;;;;;;4188357;28;20052;-62
2021/07/16 10:01:51;;;;;;;5.53;4.15;;;28.20;97.30;;;;;;4187445;28;20025;-61
2021/07/16 10:03:54;;;;;;;9.57;4.03;;;28.10;97.30;;;;;;4188507;28;20032;-61
2021/07/16 10:05:57;;;;;;;9.10;4.03;;;28.10;97.30;;;;;;4186799;28;20085;-61
2021/07/16 10:07:59;;;;;;;6.90;4.65;;;28.10;97.40;;;;;;4188440;28;20029;-61
2021/07/16 10:10:01;;;;;;;6.50;4.20;;;28.30;97.20;;;;;;4187601;28;20485;-60
2021/07/16 10:12:03;;;;;;;6.70;3.78;;;28.40;97.00;;;;;;4188545;28;20052;-61
2021/07/16 10:14:05;;;;;;;4.97;3.83;;;28.40;97.00;;;;;;4187343;28;20090;-61
2021/07/16 10:16:07;;;;;;;10.80;5.45;;;28.40;96.80;;;;;;4188724;28;20032;-61
2021/07/16 10:18:08;;;;;;;11.48;4.20;;;28.50;96.60;;;;;;4190078;28;20058;-61
2021/07/16 10:20:12;;;;;;;5.10;4.07;;;28.50;96.60;;;;;;4191275;28;20522;-62
2021/07/16 10:22:14;;;;;;;6.45;3.60;;;28.50;96.50;;;;;;4191029;28;20542;-62
2021/07/16 10:24:22;;;;;;;7.70;4.10;;;28.30;96.70;;;;;;4190856;28;20179;-61
2021/07/16 10:26:24;;;;;;;6.18;4.00;;;28.20;96.70;;;;;;4190810;28;20032;-61
2021/07/16 10:28:33;;;;;;;4.40;3.50;;;28.10;96.90;;;;;;4190713;28;20101;-62
2021/07/16 10:30:40;;;;;;;10.73;4.30;;;28.00;96.80;;;;;;4190598;28;20029;-61
2021/07/16 10:32:46;;;;;;;5.45;3.63;;;27.90;96.90;;;;;;4190511;28;20522;-61
2021/07/16 10:34:48;;;;;;;4.65;3.58;;;28.00;96.40;;;;;;4190642;28;20074;-62